createdAt,value
2023-03-05T00:00:40.726Z,96355
2023-03-05T00:02:40.692Z,96359
2023-03-05T00:03:40.675Z,96361
2023-03-05T00:04:40.678Z,96359
2023-03-05T00:07:40.695Z,96352
2023-03-05T00:09:40.713Z,96353
2023-03-05T00:10:40.713Z,96355
2023-03-05T00:11:40.687Z,96355
2023-03-05T00:12:40.708Z,96355
2023-03-05T00:13:40.688Z,96352
2023-03-05T00:14:40.696Z,96352
2023-03-05T00:18:40.723Z,96356
2023-03-05T00:19:40.713Z,96356
2023-03-05T00:20:40.747Z,96358
2023-03-05T00:22:40.702Z,96353
2023-03-05T00:23:40.776Z,96355
2023-03-05T00:24:40.718Z,96355
2023-03-05T00:25:40.715Z,96354
2023-03-05T00:26:40.730Z,96359
2023-03-05T00:27:40.731Z,96359
2023-03-05T00:28:40.751Z,96356
2023-03-05T00:29:40.700Z,96356
2023-03-05T00:30:40.727Z,96352
2023-03-05T00:31:40.849Z,96352
2023-03-05T00:32:40.774Z,96352
2023-03-05T00:33:40.774Z,96359
2023-03-05T00:34:40.747Z,96355
2023-03-05T00:35:40.761Z,96355
2023-03-05T00:36:40.746Z,96361
2023-03-05T00:37:40.746Z,96361
2023-03-05T00:39:40.701Z,96361
2023-03-05T00:40:40.846Z,96361
2023-03-05T00:41:40.753Z,96357
2023-03-05T00:42:40.771Z,96357
2023-03-05T00:44:40.722Z,96358
2023-03-05T00:45:40.732Z,96357
2023-03-05T00:46:40.898Z,96354
2023-03-05T00:47:40.772Z,96355
2023-03-05T00:48:40.772Z,96355
2023-03-05T00:49:40.780Z,96353
2023-03-05T00:50:40.742Z,96353
2023-03-05T00:51:40.784Z,96349
2023-03-05T00:52:40.743Z,96349
2023-03-05T00:53:40.781Z,96348
2023-03-05T00:54:40.790Z,96345
2023-03-05T00:55:40.798Z,96343
2023-03-05T00:56:40.808Z,96341
2023-03-05T00:57:40.773Z,96340
2023-03-05T00:58:40.756Z,96338
2023-03-05T00:59:40.800Z,96340
2023-03-05T01:00:40.824Z,96338
2023-03-05T01:01:40.904Z,96338
2023-03-05T01:02:40.812Z,96335
2023-03-05T01:04:40.818Z,96335
2023-03-05T01:05:40.825Z,96330
2023-03-05T01:06:40.863Z,96327
2023-03-05T01:07:40.800Z,96327
2023-03-05T01:08:40.809Z,96323
2023-03-05T01:09:40.802Z,96321
2023-03-05T01:10:40.822Z,96316
2023-03-05T01:11:40.846Z,96313
2023-03-05T01:12:40.814Z,96313
2023-03-05T01:13:40.788Z,96314
2023-03-05T01:15:40.837Z,96313
2023-03-05T01:16:40.831Z,96309
2023-03-05T01:17:40.796Z,96309
2023-03-05T01:18:40.832Z,96304
2023-03-05T01:19:40.834Z,96304
2023-03-05T01:20:40.791Z,96304
2023-03-05T01:21:40.834Z,96304
2023-03-05T01:23:40.838Z,96303
2023-03-05T01:24:40.813Z,96306
2023-03-05T01:25:40.819Z,96303
2023-03-05T01:26:40.830Z,96304
2023-03-05T01:27:40.836Z,96299
2023-03-05T01:28:40.816Z,96299
2023-03-05T01:30:40.866Z,96298
2023-03-05T01:31:40.942Z,96297
2023-03-05T01:32:40.968Z,96292
2023-03-05T01:33:40.860Z,96292
2023-03-05T01:34:40.834Z,96294
2023-03-05T01:35:40.849Z,96294
2023-03-05T01:36:40.889Z,96291
2023-03-05T01:37:40.828Z,96291
2023-03-05T01:38:40.820Z,96291
2023-03-05T01:39:40.834Z,96287
2023-03-05T01:40:40.831Z,96287
2023-03-05T01:41:40.908Z,96285
2023-03-05T01:42:40.872Z,96285
2023-03-05T01:43:40.863Z,96288
2023-03-05T01:45:40.909Z,96281
2023-03-05T01:46:40.897Z,96278
2023-03-05T01:48:40.866Z,96278
2023-03-05T01:49:40.860Z,96278
2023-03-05T01:50:40.913Z,96278
2023-03-05T01:51:40.947Z,96277
2023-03-05T01:52:40.869Z,96272
2023-03-05T01:53:40.868Z,96274
2023-03-05T01:54:40.877Z,96271
2023-03-05T01:55:40.912Z,96270
2023-03-05T01:57:40.866Z,96269
2023-03-05T01:58:40.872Z,96268
2023-03-05T01:59:40.914Z,96264
2023-03-05T02:00:40.922Z,96263
2023-03-05T02:01:40.890Z,96263
2023-03-05T02:02:40.891Z,96263
2023-03-05T02:03:41.018Z,96262
2023-03-05T02:04:40.941Z,96260
2023-03-05T02:05:40.911Z,96260
2023-03-05T02:06:40.918Z,96260
2023-03-05T02:08:40.941Z,96258
2023-03-05T02:09:40.948Z,96259
2023-03-05T02:10:40.934Z,96256
2023-03-05T02:11:40.894Z,96258
2023-03-05T02:13:41.029Z,96254
2023-03-05T02:14:40.978Z,96257
2023-03-05T02:15:40.959Z,96257
2023-03-05T02:16:41.022Z,96257
2023-03-05T02:17:40.961Z,96257
2023-03-05T02:18:40.940Z,96254
2023-03-05T02:19:40.972Z,96254
2023-03-05T02:20:40.963Z,96253
2023-03-05T02:21:40.939Z,96251
2023-03-05T02:22:40.972Z,96251
2023-03-05T02:23:40.994Z,96251
2023-03-05T02:24:41.033Z,96249
2023-03-05T02:25:41.015Z,96249
2023-03-05T02:26:40.989Z,96245
2023-03-05T02:27:40.981Z,96245
2023-03-05T02:28:40.952Z,96249
2023-03-05T02:30:40.995Z,96245
2023-03-05T02:31:41.073Z,96245
2023-03-05T02:32:41.075Z,96243
2023-03-05T02:34:40.997Z,96244
2023-03-05T02:35:41.087Z,96241
2023-03-05T02:36:41.023Z,96239
2023-03-05T02:37:41.011Z,96241
2023-03-05T02:38:40.977Z,96241
2023-03-05T02:40:41.044Z,96240
2023-03-05T02:41:41.030Z,96240
2023-03-05T02:42:41.050Z,96240
2023-03-05T02:44:41.031Z,96238
2023-03-05T02:45:41.086Z,96238
2023-03-05T02:46:41.047Z,96237
2023-03-05T02:47:41.076Z,96236
2023-03-05T02:48:41.044Z,96232
2023-03-05T02:49:41.027Z,96232
2023-03-05T02:51:40.997Z,96229
2023-03-05T02:52:41.092Z,96226
2023-03-05T02:53:41.055Z,96221
2023-03-05T02:54:41.051Z,96221
2023-03-05T02:55:41.070Z,96222
2023-03-05T02:57:41.088Z,96220
2023-03-05T02:59:41.173Z,96218
2023-03-05T03:01:41.091Z,96216
2023-03-05T03:03:41.076Z,96209
2023-03-05T03:04:41.079Z,96207
2023-03-05T03:05:41.089Z,96211
2023-03-05T03:06:41.068Z,96207
2023-03-05T03:07:41.115Z,96205
2023-03-05T03:09:41.051Z,96203
2023-03-05T03:10:41.106Z,96201
2023-03-05T03:11:41.059Z,96201
2023-03-05T03:12:41.049Z,96202
2023-03-05T03:13:41.065Z,96199
2023-03-05T03:15:41.133Z,96199
2023-03-05T03:16:41.149Z,96199
2023-03-05T03:17:41.105Z,96199
2023-03-05T03:18:41.108Z,96199
2023-03-05T03:19:41.088Z,96197
2023-03-05T03:20:41.112Z,96196
2023-03-05T03:21:41.095Z,96195
2023-03-05T03:22:41.123Z,96194
2023-03-05T03:23:41.121Z,96194
2023-03-05T03:25:41.141Z,96196
2023-03-05T03:26:41.160Z,96192
2023-03-05T03:28:41.134Z,96190
2023-03-05T03:30:41.210Z,96190
2023-03-05T03:31:41.145Z,96186
2023-03-05T03:32:41.148Z,96186
2023-03-05T03:33:41.177Z,96184
2023-03-05T03:34:41.144Z,96184
2023-03-05T03:37:41.135Z,96178
2023-03-05T03:38:41.222Z,96179
2023-03-05T03:39:41.123Z,96179
2023-03-05T03:41:41.141Z,96180
2023-03-05T03:42:41.135Z,96174
2023-03-05T03:43:41.166Z,96180
2023-03-05T03:44:41.187Z,96180
2023-03-05T03:45:41.174Z,96175
2023-03-05T03:46:41.179Z,96178
2023-03-05T03:47:41.188Z,96179
2023-03-05T03:48:41.187Z,96171
2023-03-05T03:49:41.160Z,96171
2023-03-05T03:51:41.191Z,96169
2023-03-05T03:52:41.212Z,96171
2023-03-05T03:53:41.208Z,96169
2023-03-05T03:54:41.153Z,96174
2023-03-05T03:56:41.238Z,96167
2023-03-05T03:57:41.217Z,96167
2023-03-05T03:58:41.212Z,96164
2023-03-05T03:59:41.184Z,96164
2023-03-05T04:00:41.220Z,96164
2023-03-05T04:01:41.277Z,96166
2023-03-05T04:03:41.193Z,96165
2023-03-05T04:04:41.279Z,96162
2023-03-05T04:05:41.222Z,96164
2023-03-05T04:07:41.206Z,96158
2023-03-05T04:08:41.219Z,96153
2023-03-05T04:09:41.230Z,96150
2023-03-05T04:11:41.224Z,96152
2023-03-05T04:12:41.239Z,96153
2023-03-05T04:13:41.249Z,96151
2023-03-05T04:16:41.249Z,96152
2023-03-05T04:17:41.254Z,96151
2023-03-05T04:18:41.223Z,96151
2023-03-05T04:19:41.235Z,96148
2023-03-05T04:20:41.316Z,96149
2023-03-05T04:21:41.227Z,96149
2023-03-05T04:25:41.276Z,96146
2023-03-05T04:26:41.245Z,96148
2023-03-05T04:27:41.296Z,96147
2023-03-05T04:28:41.291Z,96147
2023-03-05T04:29:41.281Z,96147
2023-03-05T04:31:41.251Z,96146
2023-03-05T04:32:41.282Z,96148
2023-03-05T04:35:41.323Z,96148
2023-03-05T04:37:41.302Z,96149
2023-03-05T04:40:41.321Z,96150
2023-03-05T04:44:41.288Z,96148
2023-03-05T04:45:41.334Z,96146
2023-03-05T04:46:41.379Z,96144
2023-03-05T04:47:41.351Z,96144
2023-03-05T04:49:41.289Z,96144
2023-03-05T04:50:41.330Z,96145
2023-03-05T04:51:41.289Z,96141
2023-03-05T04:52:41.368Z,96146
2023-03-05T04:55:41.306Z,96145
2023-03-05T04:58:41.345Z,96144
2023-03-05T05:00:41.364Z,96142
2023-03-05T05:01:41.375Z,96142
2023-03-05T05:03:41.313Z,96140
2023-03-05T05:04:41.356Z,96138
2023-03-05T05:09:41.355Z,96133
2023-03-05T05:11:41.337Z,96135
2023-03-05T05:13:41.385Z,96137
2023-03-05T05:14:41.387Z,96137
2023-03-05T05:15:41.396Z,96135
2023-03-05T05:17:41.399Z,96134
2023-03-05T05:18:41.398Z,96134
2023-03-05T05:19:41.371Z,96130
2023-03-05T05:20:41.354Z,96130
2023-03-05T05:23:41.471Z,96124
2023-03-05T05:24:41.359Z,96124
2023-03-05T05:25:41.370Z,96124
2023-03-05T05:26:41.425Z,96122
2023-03-05T05:27:41.379Z,96120
2023-03-05T05:28:41.426Z,96120
2023-03-05T05:29:41.379Z,96120
2023-03-05T05:30:41.400Z,96118
2023-03-05T05:31:41.481Z,96118
2023-03-05T05:32:41.538Z,96115
2023-03-05T05:33:41.463Z,96115
2023-03-05T05:34:41.428Z,96115
2023-03-05T05:35:41.499Z,96111
2023-03-05T05:36:41.461Z,96110
2023-03-05T05:37:41.399Z,96110
2023-03-05T05:39:41.409Z,96113
2023-03-05T05:41:41.492Z,96112
2023-03-05T05:42:41.457Z,96114
2023-03-05T05:43:41.454Z,96113
2023-03-05T05:47:41.460Z,96107
2023-03-05T05:48:41.515Z,96107
2023-03-05T05:49:41.441Z,96107
2023-03-05T05:50:41.480Z,96109
2023-03-05T05:51:41.498Z,96109
2023-03-05T05:52:41.447Z,96106
2023-03-05T05:53:41.542Z,96107
2023-03-05T05:54:41.461Z,96107
2023-03-05T05:56:41.464Z,96109
2023-03-05T06:02:41.584Z,96103
2023-03-05T06:03:41.525Z,96105
2023-03-05T06:04:41.481Z,96102
2023-03-05T06:05:41.500Z,96102
2023-03-05T06:06:41.480Z,96103
2023-03-05T06:07:41.510Z,96103
2023-03-05T06:08:41.522Z,96104
2023-03-05T06:10:41.492Z,96104
2023-03-05T06:11:41.538Z,96106
2023-03-05T06:12:41.550Z,96104
2023-03-05T06:13:41.487Z,96104
2023-03-05T06:16:41.657Z,96104
2023-03-05T06:19:41.568Z,96103
2023-03-05T06:20:41.541Z,96101
2023-03-05T06:21:41.558Z,96102
2023-03-05T06:22:41.555Z,96100
2023-03-05T06:23:41.517Z,96100
2023-03-05T06:25:41.539Z,96102
2023-03-05T06:26:41.570Z,96106
2023-03-05T06:27:41.571Z,96104
2023-03-05T06:28:41.525Z,96103
2023-03-05T06:29:41.537Z,96103
2023-03-05T06:31:41.633Z,96101
2023-03-05T06:32:41.570Z,96101
2023-03-05T06:33:41.565Z,96102
2023-03-05T06:34:41.591Z,96102
2023-03-05T06:36:41.567Z,96100
2023-03-05T06:38:41.578Z,96097
2023-03-05T06:39:41.593Z,96098
2023-03-05T06:40:41.595Z,96098
2023-03-05T06:45:41.685Z,96102
2023-03-05T06:46:41.586Z,96099
2023-03-05T06:47:41.603Z,96101
2023-03-05T06:48:41.628Z,96098
2023-03-05T06:49:41.588Z,96098
2023-03-05T06:50:41.625Z,96096
2023-03-05T06:51:41.574Z,96092
2023-03-05T06:52:41.631Z,96093
2023-03-05T06:53:41.624Z,96093
2023-03-05T06:54:41.597Z,96094
2023-03-05T06:55:41.596Z,96094
2023-03-05T06:56:41.607Z,96094
2023-03-05T06:57:41.676Z,96089
2023-03-05T06:58:41.612Z,96091
2023-03-05T07:00:41.700Z,96089
2023-03-05T07:01:41.717Z,96089
2023-03-05T07:02:41.732Z,96090
2023-03-05T07:03:41.657Z,96090
2023-03-05T07:04:41.657Z,96089
2023-03-05T07:06:41.662Z,96087
2023-03-05T07:07:41.678Z,96086
2023-03-05T07:08:41.642Z,96086
2023-03-05T07:09:41.654Z,96084
2023-03-05T07:10:41.645Z,96085
2023-03-05T07:11:41.674Z,96085
2023-03-05T07:12:43.493Z,96086
2023-03-05T07:13:41.650Z,96084
2023-03-05T07:14:41.659Z,96084
2023-03-05T07:15:41.825Z,96081
2023-03-05T07:17:41.642Z,96083
2023-03-05T07:18:41.647Z,96083
2023-03-05T07:19:41.671Z,96081
2023-03-05T07:20:41.733Z,96084
2023-03-05T07:21:41.671Z,96083
2023-03-05T07:22:41.667Z,96083
2023-03-05T07:23:41.723Z,96084
2023-03-05T07:24:41.695Z,96081
2023-03-05T07:25:41.667Z,96081
2023-03-05T07:26:41.718Z,96082
2023-03-05T07:27:41.719Z,96081
2023-03-05T07:28:41.708Z,96077
2023-03-05T07:29:41.688Z,96077
2023-03-05T07:30:41.783Z,96077
2023-03-05T07:33:41.713Z,96081
2023-03-05T07:34:41.701Z,96081
2023-03-05T07:35:41.741Z,96076
2023-03-05T07:37:41.702Z,96076
2023-03-05T07:38:41.778Z,96074
2023-03-05T07:39:41.730Z,96074
2023-03-05T07:40:41.707Z,96072
2023-03-05T07:41:41.737Z,96078
2023-03-05T07:43:41.768Z,96073
2023-03-05T07:44:41.746Z,96073
2023-03-05T07:45:41.764Z,96074
2023-03-05T07:46:41.923Z,96073
2023-03-05T07:47:41.767Z,96070
2023-03-05T07:48:41.796Z,96073
2023-03-05T07:49:41.787Z,96074
2023-03-05T07:50:41.737Z,96074
2023-03-05T07:51:41.749Z,96076
2023-03-05T07:52:41.725Z,96076
2023-03-05T07:53:41.734Z,96072
2023-03-05T07:54:41.783Z,96073
2023-03-05T07:55:41.738Z,96070
2023-03-05T07:56:41.743Z,96075
2023-03-05T07:57:41.743Z,96074
2023-03-05T07:58:41.796Z,96074
2023-03-05T07:59:41.809Z,96073
2023-03-05T08:00:41.747Z,96073
2023-03-05T08:01:41.776Z,96072
2023-03-05T08:02:41.803Z,96072
2023-03-05T08:03:41.911Z,96070
2023-03-05T08:04:41.790Z,96070
2023-03-05T08:05:41.816Z,96066
2023-03-05T08:06:41.811Z,96065
2023-03-05T08:07:41.810Z,96067
2023-03-05T08:08:41.757Z,96067
2023-03-05T08:09:41.828Z,96065
2023-03-05T08:10:41.824Z,96068
2023-03-05T08:11:41.816Z,96068
2023-03-05T08:12:41.853Z,96064
2023-03-05T08:13:41.826Z,96064
2023-03-05T08:14:41.825Z,96067
2023-03-05T08:15:41.827Z,96064
2023-03-05T08:16:41.847Z,96064
2023-03-05T08:17:41.801Z,96063
2023-03-05T08:18:41.847Z,96063
2023-03-05T08:19:41.794Z,96063
2023-03-05T08:20:41.866Z,96062
2023-03-05T08:21:41.833Z,96060
2023-03-05T08:22:41.847Z,96060
2023-03-05T08:23:41.845Z,96059
2023-03-05T08:24:41.848Z,96058
2023-03-05T08:25:41.881Z,96056
2023-03-05T08:26:41.870Z,96052
2023-03-05T08:27:41.863Z,96052
2023-03-05T08:28:41.812Z,96053
2023-03-05T08:29:41.826Z,96053
2023-03-05T08:30:41.864Z,96054
2023-03-05T08:31:42.693Z,96054
2023-03-05T08:32:41.890Z,96052
2023-03-05T08:33:41.857Z,96052
2023-03-05T08:34:41.839Z,96056
2023-03-05T08:35:41.913Z,96053
2023-03-05T08:36:41.849Z,96052
2023-03-05T08:37:41.870Z,96052
2023-03-05T08:39:41.892Z,96049
2023-03-05T08:40:41.900Z,96049
2023-03-05T08:41:41.889Z,96046
2023-03-05T08:42:41.865Z,96043
2023-03-05T08:43:41.934Z,96043
2023-03-05T08:44:41.892Z,96042
2023-03-05T08:45:41.920Z,96044
2023-03-05T08:46:41.998Z,96044
2023-03-05T08:47:41.909Z,96044
2023-03-05T08:48:41.910Z,96045
2023-03-05T08:49:41.869Z,96045
2023-03-05T08:50:41.880Z,96044
2023-03-05T08:51:41.967Z,96050
2023-03-05T08:53:41.919Z,96046
2023-03-05T08:55:44.103Z,96046
2023-03-05T08:56:41.962Z,96042
2023-03-05T08:57:41.973Z,96037
2023-03-05T08:58:41.970Z,96039
2023-03-05T08:59:41.946Z,96039
2023-03-05T09:00:41.894Z,96037
2023-03-05T09:01:42.030Z,96037
2023-03-05T09:02:41.930Z,96035
2023-03-05T09:03:41.951Z,96034
2023-03-05T09:04:41.937Z,96036
2023-03-05T09:05:41.925Z,96034
2023-03-05T09:07:41.953Z,96036
2023-03-05T09:08:41.935Z,96036
2023-03-05T09:09:41.998Z,96035
2023-03-05T09:10:41.931Z,96035
2023-03-05T09:11:41.932Z,96030
2023-03-05T09:12:41.940Z,96031
2023-03-05T09:13:41.926Z,96025
2023-03-05T09:14:42.018Z,96023
2023-03-05T09:15:41.953Z,96023
2023-03-05T09:16:42.046Z,96025
2023-03-05T09:17:41.988Z,96021
2023-03-05T09:18:41.988Z,96021
2023-03-05T09:19:41.982Z,96017
2023-03-05T09:20:42.000Z,96022
2023-03-05T09:21:41.988Z,96022
2023-03-05T09:22:41.993Z,96017
2023-03-05T09:23:41.964Z,96017
2023-03-05T09:24:41.950Z,96016
2023-03-05T09:25:41.961Z,96015
2023-03-05T09:26:41.962Z,96011
2023-03-05T09:27:42.025Z,96007
2023-03-05T09:28:41.960Z,96007
2023-03-05T09:31:42.064Z,96010
2023-03-05T09:32:42.049Z,96007
2023-03-05T09:33:41.998Z,96007
2023-03-05T09:34:42.004Z,96009
2023-03-05T09:35:42.149Z,96007
2023-03-05T09:36:41.988Z,96007
2023-03-05T09:37:42.020Z,96005
2023-03-05T09:38:41.993Z,96005
2023-03-05T09:39:42.017Z,96005
2023-03-05T09:40:42.036Z,96006
2023-03-05T09:41:42.047Z,96006
2023-03-05T09:42:42.081Z,96004
2023-03-05T09:43:42.008Z,96004
2023-03-05T09:44:42.039Z,96002
2023-03-05T09:45:42.159Z,96005
2023-03-05T09:46:42.015Z,96005
2023-03-05T09:47:42.019Z,95997
2023-03-05T09:48:42.050Z,95992
2023-03-05T09:49:42.006Z,95992
2023-03-05T09:50:42.068Z,95990
2023-03-05T09:51:42.092Z,95990
2023-03-05T09:52:42.064Z,95991
2023-03-05T09:53:42.061Z,95990
2023-03-05T09:54:42.074Z,95990
2023-03-05T09:55:42.085Z,95989
2023-03-05T09:56:42.095Z,95989
2023-03-05T09:57:42.075Z,95988
2023-03-05T09:58:42.052Z,95987
2023-03-05T09:59:42.044Z,95989
2023-03-05T10:00:42.057Z,95988
2023-03-05T10:01:42.042Z,95984
2023-03-05T10:02:42.123Z,95982
2023-03-05T10:03:42.142Z,95981
2023-03-05T10:04:42.091Z,95979
2023-03-05T10:05:42.098Z,95979
2023-03-05T10:06:42.053Z,95980
2023-03-05T10:07:42.113Z,95981
2023-03-05T10:08:42.100Z,95979
2023-03-05T10:09:42.073Z,95976
2023-03-05T10:10:42.072Z,95977
2023-03-05T10:11:42.078Z,95973
2023-03-05T10:12:42.080Z,95973
2023-03-05T10:13:42.141Z,95972
2023-03-05T10:14:42.137Z,95972
2023-03-05T10:15:42.097Z,95969
2023-03-05T10:16:42.295Z,95970
2023-03-05T10:17:42.134Z,95970
2023-03-05T10:18:42.129Z,95963
2023-03-05T10:19:42.099Z,95963
2023-03-05T10:20:42.105Z,95964
2023-03-05T10:21:42.151Z,95959
2023-03-05T10:22:42.110Z,95962
2023-03-05T10:23:42.105Z,95962
2023-03-05T10:24:42.105Z,95960
2023-03-05T10:25:42.157Z,95956
2023-03-05T10:26:42.203Z,95956
2023-03-05T10:27:42.147Z,95953
2023-03-05T10:28:42.144Z,95953
2023-03-05T10:29:42.153Z,95953
2023-03-05T10:30:42.172Z,95954
2023-03-05T10:31:42.223Z,95953
2023-03-05T10:32:42.256Z,95953
2023-03-05T10:33:42.180Z,95950
2023-03-05T10:34:42.207Z,95948
2023-03-05T10:35:42.234Z,95942
2023-03-05T10:36:42.177Z,95942
2023-03-05T10:37:42.132Z,95949
2023-03-05T10:38:42.190Z,95943
2023-03-05T10:39:42.189Z,95943
2023-03-05T10:40:42.174Z,95943
2023-03-05T10:41:42.159Z,95939
2023-03-05T10:42:42.169Z,95939
2023-03-05T10:43:42.163Z,95941
2023-03-05T10:44:42.206Z,95938
2023-03-05T10:45:42.192Z,95941
2023-03-05T10:46:42.212Z,95938
2023-03-05T10:47:42.242Z,95935
2023-03-05T10:48:42.172Z,95935
2023-03-05T10:49:42.179Z,95940
2023-03-05T10:50:42.231Z,95936
2023-03-05T10:51:42.218Z,95936
2023-03-05T10:52:42.212Z,95934
2023-03-05T10:53:42.201Z,95933
2023-03-05T10:54:42.230Z,95933
2023-03-05T10:55:42.242Z,95933
2023-03-05T10:56:42.204Z,95933
2023-03-05T10:57:42.223Z,95926
2023-03-05T10:58:42.203Z,95926
2023-03-05T10:59:42.219Z,95925
2023-03-05T11:00:42.200Z,95929
2023-03-05T11:01:42.230Z,95925
2023-03-05T11:02:42.331Z,95924
2023-03-05T11:03:42.238Z,95922
2023-03-05T11:04:42.226Z,95920
2023-03-05T11:05:42.266Z,95920
2023-03-05T11:06:42.292Z,95917
2023-03-05T11:07:42.216Z,95917
2023-03-05T11:08:42.268Z,95912
2023-03-05T11:10:42.310Z,95911
2023-03-05T11:11:42.258Z,95914
2023-03-05T11:12:42.270Z,95914
2023-03-05T11:13:42.260Z,95914
2023-03-05T11:14:42.276Z,95911
2023-03-05T11:15:42.303Z,95910
2023-03-05T11:16:42.242Z,95910
2023-03-05T11:17:42.228Z,95913
2023-03-05T11:18:42.232Z,95905
2023-03-05T11:19:42.251Z,95907
2023-03-05T11:20:42.273Z,95904
2023-03-05T11:21:42.257Z,95904
2023-03-05T11:22:42.251Z,95903
2023-03-05T11:23:42.256Z,95902
2023-03-05T11:24:42.262Z,95898
2023-03-05T11:25:42.289Z,95898
2023-03-05T11:27:42.262Z,95897
2023-03-05T11:28:42.300Z,95896
2023-03-05T11:29:42.275Z,95887
2023-03-05T11:30:42.394Z,95889
2023-03-05T11:31:42.271Z,95889
2023-03-05T11:32:42.275Z,95888
2023-03-05T11:33:42.347Z,95882
2023-03-05T11:34:42.301Z,95882
2023-03-05T11:36:42.400Z,95879
2023-03-05T11:37:42.329Z,95879
2023-03-05T11:38:42.369Z,95880
2023-03-05T11:39:42.336Z,95877
2023-03-05T11:40:42.303Z,95874
2023-03-05T11:41:42.317Z,95870
2023-03-05T11:42:42.347Z,95870
2023-03-05T11:43:42.342Z,95874
2023-03-05T11:44:42.312Z,95870
2023-03-05T11:45:42.350Z,95870
2023-03-05T11:46:42.319Z,95866
2023-03-05T11:47:42.341Z,95866
2023-03-05T11:48:42.343Z,95860
2023-03-05T11:49:42.316Z,95862
2023-03-05T11:50:42.364Z,95860
2023-03-05T11:52:42.375Z,95860
2023-03-05T11:53:42.404Z,95857
2023-03-05T11:54:42.359Z,95857
2023-03-05T11:55:42.374Z,95852
2023-03-05T11:56:42.330Z,95854
2023-03-05T11:57:42.335Z,95851
2023-03-05T11:58:42.418Z,95849
2023-03-05T11:59:42.377Z,95849
2023-03-05T12:00:42.395Z,95848
2023-03-05T12:01:42.351Z,95848
2023-03-05T12:02:42.449Z,95846
2023-03-05T12:03:42.499Z,95845
2023-03-05T12:04:42.385Z,95841
2023-03-05T12:05:42.407Z,95838
2023-03-05T12:06:42.646Z,95837
2023-03-05T12:07:43.150Z,95834
2023-03-05T12:08:42.844Z,95836
2023-03-05T12:09:42.429Z,95836
2023-03-05T12:10:42.395Z,95834
2023-03-05T12:11:42.460Z,95833
2023-03-05T12:12:42.383Z,95833
2023-03-05T12:13:43.269Z,95830
2023-03-05T12:14:42.997Z,95830
2023-03-05T12:15:42.448Z,95826
2023-03-05T12:16:42.663Z,95827
2023-03-05T12:17:42.538Z,95824
2023-03-05T12:18:42.942Z,95825
2023-03-05T12:19:42.797Z,95825
2023-03-05T12:20:42.546Z,95822
2023-03-05T12:21:42.442Z,95821
2023-03-05T12:22:42.475Z,95812
2023-03-05T12:23:42.480Z,95809
2023-03-05T12:24:43.122Z,95809
2023-03-05T12:26:42.943Z,95805
2023-03-05T12:27:42.542Z,95805
2023-03-05T12:28:42.872Z,95801
2023-03-05T12:29:42.452Z,95801
2023-03-05T12:30:42.471Z,95801
2023-03-05T12:31:42.890Z,95798
2023-03-05T12:32:43.004Z,95793
2023-03-05T12:33:42.466Z,95793
2023-03-05T12:34:43.031Z,95787
2023-03-05T12:35:42.894Z,95785
2023-03-05T12:36:42.478Z,95783
2023-03-05T12:37:42.686Z,95783
2023-03-05T12:38:42.466Z,95785
2023-03-05T12:39:42.495Z,95780
2023-03-05T12:40:42.978Z,95780
2023-03-05T12:41:42.941Z,95779
2023-03-05T12:42:42.453Z,95776
2023-03-05T12:43:42.518Z,95777
2023-03-05T12:44:42.519Z,95777
2023-03-05T12:45:42.540Z,95779
2023-03-05T12:46:42.608Z,95770
2023-03-05T12:47:42.531Z,95769
2023-03-05T12:48:42.588Z,95769
2023-03-05T12:49:42.534Z,95763
2023-03-05T12:50:42.519Z,95762
2023-03-05T12:51:42.493Z,95762
2023-03-05T12:52:42.500Z,95766
2023-03-05T12:53:42.511Z,95766
2023-03-05T12:54:42.516Z,95759
2023-03-05T12:55:42.501Z,95756
2023-03-05T12:56:42.525Z,95756
2023-03-05T12:57:42.519Z,95759
2023-03-05T12:58:42.498Z,95757
2023-03-05T12:59:42.541Z,95754
2023-03-05T13:00:42.512Z,95752
2023-03-05T13:01:42.516Z,95749
2023-03-05T13:02:42.546Z,95747
2023-03-05T13:03:42.564Z,95745
2023-03-05T13:04:42.584Z,95743
2023-03-05T13:05:42.548Z,95741
2023-03-05T13:07:42.515Z,95737
2023-03-05T13:08:42.548Z,95737
2023-03-05T13:09:42.583Z,95738
2023-03-05T13:10:42.558Z,95738
2023-03-05T13:11:42.558Z,95736
2023-03-05T13:12:42.579Z,95733
2023-03-05T13:13:42.647Z,95734
2023-03-05T13:14:42.584Z,95729
2023-03-05T13:15:42.555Z,95727
2023-03-05T13:16:42.685Z,95727
2023-03-05T13:17:51.448Z,95723
2023-03-05T13:21:42.890Z,95726
2023-03-05T13:22:42.778Z,95729
2023-03-05T13:23:42.715Z,95723
2023-03-05T13:24:42.737Z,95724
2023-03-05T13:25:42.769Z,95729
2023-03-05T13:26:42.701Z,95723
2023-03-05T13:27:42.645Z,95723
2023-03-05T13:28:46.720Z,95721
2023-03-05T13:29:42.756Z,95719
2023-03-05T13:30:42.842Z,95715
2023-03-05T13:31:42.774Z,95714
2023-03-05T13:32:42.793Z,95712
2023-03-05T13:33:42.781Z,95712
2023-03-05T13:34:47.608Z,95710
2023-03-05T13:35:42.754Z,95706
2023-03-05T13:36:42.711Z,95706
2023-03-05T13:37:42.754Z,95709
2023-03-05T13:38:42.686Z,95709
2023-03-05T13:39:42.669Z,95717
2023-03-05T13:40:42.702Z,95717
2023-03-05T13:41:42.729Z,95710
2023-03-05T13:42:42.742Z,95715
2023-03-05T13:43:42.712Z,95720
2023-03-05T13:44:42.842Z,95713
2023-03-05T13:45:42.779Z,95709
2023-03-05T13:46:42.701Z,95709
2023-03-05T13:47:42.776Z,95705
2023-03-05T13:48:42.727Z,95701
2023-03-05T13:49:42.695Z,95701
2023-03-05T13:50:42.843Z,95707
2023-03-05T13:51:42.766Z,95704
2023-03-05T13:52:42.739Z,95704
2023-03-05T13:53:42.738Z,95704
2023-03-05T13:54:42.742Z,95702
2023-03-05T13:55:42.760Z,95701
2023-03-05T13:56:42.735Z,95696
2023-03-05T13:57:42.775Z,95696
2023-03-05T13:58:42.739Z,95694
2023-03-05T13:59:42.780Z,95691
2023-03-05T14:00:42.793Z,95691
2023-03-05T14:01:42.762Z,95689
2023-03-05T14:02:42.795Z,95689
2023-03-05T14:03:42.723Z,95689
2023-03-05T14:04:42.783Z,95685
2023-03-05T14:05:47.022Z,95686
2023-03-05T14:06:42.770Z,95689
2023-03-05T14:07:42.774Z,95687
2023-03-05T14:08:42.739Z,95683
2023-03-05T14:09:42.797Z,95680
2023-03-05T14:10:42.788Z,95681
2023-03-05T14:11:42.805Z,95679
2023-03-05T14:12:42.809Z,95675
2023-03-05T14:13:42.747Z,95674
2023-03-05T14:14:42.751Z,95676
2023-03-05T14:15:42.759Z,95676
2023-03-05T14:16:42.864Z,95674
2023-03-05T14:17:42.763Z,95670
2023-03-05T14:18:43.008Z,95670
2023-03-05T14:19:42.796Z,95674
2023-03-05T14:20:42.773Z,95673
2023-03-05T14:21:42.849Z,95673
2023-03-05T14:22:42.798Z,95671
2023-03-05T14:23:42.866Z,95672
2023-03-05T14:24:42.830Z,95668
2023-03-05T14:25:42.757Z,95668
2023-03-05T14:26:42.833Z,95668
2023-03-05T14:27:42.821Z,95667
2023-03-05T14:28:42.858Z,95663
2023-03-05T14:29:42.855Z,95659
2023-03-05T14:30:42.853Z,95658
2023-03-05T14:31:42.827Z,95655
2023-03-05T14:32:42.924Z,95655
2023-03-05T14:34:42.910Z,95653
2023-03-05T14:35:42.960Z,95650
2023-03-05T14:36:42.904Z,95653
2023-03-05T14:37:42.886Z,95653
2023-03-05T14:38:42.853Z,95654
2023-03-05T14:39:45.883Z,95654
2023-03-05T14:40:42.822Z,95654
2023-03-05T14:41:42.839Z,95652
2023-03-05T14:42:47.285Z,95654
2023-03-05T14:43:42.884Z,95650
2023-03-05T14:44:42.906Z,95648
2023-03-05T14:45:42.906Z,95648
2023-03-05T14:46:42.902Z,95646
2023-03-05T14:47:42.887Z,95646
2023-03-05T14:48:42.923Z,95643
2023-03-05T14:49:42.936Z,95643
2023-03-05T14:50:42.927Z,95641